Anzahl Datensätze: 48
min. Temperatur: 14.8 °C
max. Temperatur: 22.9 °C
max. Windgeschwindigkeit: 0.0 km/h
Niederschlagsumme: 0.8 mm
| Datum |
Zeit |
Temp °C |
Feuchte % |
Taupunkt °C |
Luftdruck hPa |
Wind km/h |
Windrichtung |
Strahlung w/m² |
Niederschlag mm |
|---|---|---|---|---|---|---|---|---|---|
| 03.07.2025 | 00:00 | 19.3 | 92 | 18.0 | 1018.7 | 0.0 | NW | 0 | 0.8 |
| 03.07.2025 | 00:30 | 19.1 | 90 | 17.4 | 1019.1 | 0.0 | SSW | 0 | 0.0 |
| 03.07.2025 | 01:00 | 18.8 | 90 | 17.1 | 1019.3 | 0.0 | NW | 0 | 0.0 |
| 03.07.2025 | 01:30 | 18.7 | 89 | 16.8 | 1019.6 | 0.0 | WNW | 0 | 0.0 |
| 03.07.2025 | 02:00 | 18.6 | 89 | 16.8 | 1019.9 | 0.0 | WNW | 0 | 0.0 |
| 03.07.2025 | 02:30 | 18.5 | 91 | 17.0 | 1020.1 | 0.0 | NNW | 0 | 0.4 |
| 03.07.2025 | 03:00 | 17.9 | 91 | 16.4 | 1020.6 | 0.0 | SSW | 0 | 0.4 |
| 03.07.2025 | 03:30 | 17.4 | 90 | 15.7 | 1020.9 | 0.0 | NW | 0 | 0.4 |
| 03.07.2025 | 04:00 | 17.1 | 90 | 15.4 | 1021.2 | 0.0 | NW | 0 | 0.4 |
| 03.07.2025 | 04:30 | 16.6 | 88 | 14.6 | 1021.5 | 0.0 | WNW | 0 | 0.4 |
| 03.07.2025 | 05:00 | 15.9 | 87 | 13.7 | 1022.0 | 0.0 | WSW | 0 | 0.4 |
| 03.07.2025 | 05:30 | 15.3 | 85 | 12.8 | 1022.4 | 0.0 | WNW | 0 | 0.4 |
| 03.07.2025 | 06:00 | 14.8 | 86 | 12.5 | 1022.8 | 0.0 | NNW | 7 | 0.4 |
| 03.07.2025 | 06:30 | 14.9 | 87 | 12.8 | 1023.3 | 0.0 | NNW | 19 | 0.4 |
| 03.07.2025 | 07:00 | 16.0 | 84 | 13.3 | 1024.0 | 0.0 | NW | 37 | 0.4 |
| 03.07.2025 | 07:30 | 16.2 | 82 | 13.1 | 1024.4 | 0.0 | NW | 54 | 0.4 |
| 03.07.2025 | 08:00 | 16.9 | 79 | 13.2 | 1024.6 | 0.0 | NNW | 139 | 0.4 |
| 03.07.2025 | 08:30 | 16.9 | 75 | 12.4 | 1025.0 | 0.0 | NNW | 230 | 0.4 |
| 03.07.2025 | 09:00 | 17.3 | 76 | 13.0 | 1025.2 | 0.0 | NNW | 327 | 0.4 |
| 03.07.2025 | 09:30 | 18.3 | 71 | 13.0 | 1025.5 | 0.0 | NNW | 515 | 0.4 |
| 03.07.2025 | 10:00 | 19.0 | 65 | 12.3 | 1025.5 | 0.0 | WNW | 522 | 0.4 |
| 03.07.2025 | 10:30 | 19.3 | 62 | 11.8 | 1025.7 | 0.0 | NW | 582 | 0.4 |
| 03.07.2025 | 11:00 | 20.1 | 59 | 11.8 | 1025.9 | 0.0 | SSW | 659 | 0.4 |
| 03.07.2025 | 11:30 | 21.4 | 53 | 11.4 | 1026.2 | 0.0 | WNW | 846 | 0.4 |
| 03.07.2025 | 12:00 | 21.7 | 54 | 12.0 | 1026.4 | 0.0 | SSW | 840 | 0.4 |
| 03.07.2025 | 12:30 | 21.6 | 51 | 11.0 | 1026.5 | 0.0 | SSW | 833 | 0.4 |
| 03.07.2025 | 13:00 | 22.1 | 50 | 11.2 | 1026.6 | 0.0 | S | 868 | 0.4 |
| 03.07.2025 | 13:30 | 21.8 | 50 | 10.9 | 1026.7 | 0.0 | S | 895 | 0.4 |
| 03.07.2025 | 14:00 | 22.7 | 46 | 10.5 | 1026.6 | 0.0 | W | 909 | 0.4 |
| 03.07.2025 | 14:30 | 22.3 | 47 | 10.4 | 1026.7 | 0.0 | NNW | 905 | 0.4 |
| 03.07.2025 | 15:00 | 22.4 | 47 | 10.5 | 1026.5 | 0.0 | NW | 893 | 0.4 |
| 03.07.2025 | 15:30 | 22.8 | 46 | 10.6 | 1026.6 | 0.0 | NNW | 867 | 0.4 |
| 03.07.2025 | 16:00 | 22.7 | 47 | 10.8 | 1026.3 | 0.0 | NNW | 837 | 0.4 |
| 03.07.2025 | 16:30 | 22.4 | 46 | 10.2 | 1026.3 | 0.0 | NNW | 798 | 0.4 |
| 03.07.2025 | 17:00 | 22.9 | 45 | 10.3 | 1026.2 | 0.0 | NNW | 46 | 0.4 |
| 03.07.2025 | 17:30 | 22.5 | 49 | 11.3 | 1026.1 | 0.0 | W | 39 | 0.4 |
| 03.07.2025 | 18:00 | 22.7 | 46 | 10.5 | 1025.9 | 0.0 | NNW | 33 | 0.4 |
| 03.07.2025 | 18:30 | 22.9 | 45 | 10.3 | 1025.9 | 0.0 | NNW | 32 | 0.4 |
| 03.07.2025 | 19:00 | 22.4 | 51 | 11.8 | 1026.0 | 0.0 | NNW | 28 | 0.4 |
| 03.07.2025 | 19:30 | 22.4 | 48 | 10.8 | 1026.0 | 0.0 | NNW | 23 | 0.4 |
| 03.07.2025 | 20:00 | 22.2 | 49 | 11.0 | 1026.1 | 0.0 | NNW | 19 | 0.4 |
| 03.07.2025 | 20:30 | 21.7 | 50 | 10.8 | 1026.2 | 0.0 | NNW | 14 | 0.4 |
| 03.07.2025 | 21:00 | 21.6 | 51 | 11.0 | 1026.2 | 0.0 | WNW | 11 | 0.4 |
| 03.07.2025 | 21:30 | 20.8 | 53 | 10.9 | 1026.3 | 0.0 | WNW | 5 | 0.4 |
| 03.07.2025 | 22:00 | 19.7 | 56 | 10.7 | 1026.5 | 0.0 | WNW | 0 | 0.4 |
| 03.07.2025 | 22:30 | 18.8 | 60 | 10.9 | 1026.9 | 0.0 | WNW | 0 | 0.4 |
| 03.07.2025 | 23:00 | 17.7 | 65 | 11.0 | 1027.2 | 0.0 | WNW | 0 | 0.4 |
| 03.07.2025 | 23:30 | 16.2 | 72 | 11.1 | 1027.3 | 0.0 | WNW | 0 | 0.4 |